createdAt,value
2023-01-06T00:04:03.733Z,101609.34
2023-01-06T00:09:06.474Z,101600.03
2023-01-06T00:14:09.021Z,101602.84
2023-01-06T00:19:13.053Z,101592.56
2023-01-06T00:24:15.582Z,101576.75
2023-01-06T00:29:18.117Z,101584.97
2023-01-06T00:34:22.522Z,101582.50
2023-01-06T00:39:25.057Z,101583.44
2023-01-06T00:44:27.663Z,101565.47
2023-01-06T00:49:32.114Z,101565.38
2023-01-06T00:54:36.503Z,101561.50
2023-01-06T00:59:39.165Z,101560.25
2023-01-06T01:04:43.044Z,101562.03
2023-01-06T01:09:45.712Z,101565.38
2023-01-06T01:14:50.927Z,101569.81
2023-01-06T01:19:57.547Z,101571.50
2023-01-06T01:25:00.131Z,101568.53
2023-01-06T01:30:04.997Z,101572.31
2023-01-06T01:35:09.827Z,101568.59
2023-01-06T01:40:15.081Z,101573.81
2023-01-06T01:45:24.839Z,101523.53
2023-01-06T01:50:35.374Z,101566.31
2023-01-06T01:55:39.229Z,101561.69
2023-01-06T02:06:22.006Z,101542.22
2023-01-06T02:11:28.318Z,101564.78
2023-01-06T02:16:41.178Z,101559.66
2023-01-06T02:22:06.296Z,101546.13
2023-01-06T02:27:34.127Z,101544.84
2023-01-06T02:32:52.896Z,101543.03
2023-01-06T02:38:07.488Z,101537.91
2023-01-06T02:43:16.662Z,101525.69
2023-01-06T02:55:13.557Z,101517.38
2023-01-06T03:00:21.833Z,101512.25
2023-01-06T03:05:27.810Z,101504.19
2023-01-06T03:10:32.833Z,101506.38
2023-01-06T03:15:36.307Z,101503.53
2023-01-06T03:20:39.696Z,101480.81
2023-01-06T03:25:44.010Z,101469.44
2023-01-06T03:30:54.204Z,101460.28
2023-01-06T03:36:08.822Z,101452.75
2023-01-06T03:41:23.618Z,101454.03
2023-01-06T03:46:35.650Z,101445.78
2023-01-06T03:51:46.842Z,101449.66
2023-01-06T03:56:55.537Z,101450.50
2023-01-06T04:02:00.345Z,101452.19
2023-01-06T04:07:03.106Z,101447.69
2023-01-06T04:12:25.141Z,101442.47
2023-01-06T04:17:29.341Z,101443.69
2023-01-06T04:22:32.425Z,101439.72
2023-01-06T04:27:36.570Z,101404.66
2023-01-06T04:32:40.413Z,101430.84
2023-01-06T04:37:44.394Z,101406.56
2023-01-06T04:43:06.555Z,101410.28
2023-01-06T04:48:09.290Z,101415.66
2023-01-06T04:53:13.181Z,101357.88
2023-01-06T04:58:17.297Z,101380.41
2023-01-06T05:03:19.884Z,101392.44
2023-01-06T05:08:22.779Z,101391.25
2023-01-06T05:13:26.692Z,101388.41
2023-01-06T05:18:29.424Z,101384.13
2023-01-06T05:23:32.172Z,101399.38
2023-01-06T05:28:36.123Z,101405.88
2023-01-06T05:33:39.039Z,101398.00
2023-01-06T05:38:41.926Z,101391.22
2023-01-06T05:43:45.867Z,101384.22
2023-01-06T05:48:48.432Z,101384.22
2023-01-06T05:53:51.089Z,101369.25
2023-01-06T05:58:56.054Z,101316.50
2023-01-06T06:03:59.155Z,101370.88
2023-01-06T06:09:02.214Z,101369.72
2023-01-06T06:14:06.119Z,101354.69
2023-01-06T06:19:08.804Z,101275.00
2023-01-06T06:24:11.518Z,101357.41
2023-01-06T06:29:15.405Z,101367.88
2023-01-06T06:34:18.035Z,101364.06
2023-01-06T06:39:20.724Z,101372.97
2023-01-06T06:44:24.593Z,101374.09
2023-01-06T06:49:27.256Z,101361.97
2023-01-06T06:54:30.225Z,101363.59
2023-01-06T06:59:34.240Z,101363.41
2023-01-06T07:04:36.800Z,101365.56
2023-01-06T07:09:39.500Z,101367.34
2023-01-06T07:14:43.483Z,101354.59
2023-01-06T07:19:46.044Z,101366.06
2023-01-06T07:24:49.037Z,101354.22
2023-01-06T07:29:53.016Z,101203.94
2023-01-06T07:34:55.642Z,101373.44
2023-01-06T07:39:58.258Z,101361.31
2023-01-06T07:45:02.291Z,101366.63
2023-01-06T07:50:06.347Z,101375.34
2023-01-06T07:55:09.405Z,101374.94
2023-01-06T08:00:14.672Z,101351.44
2023-01-06T08:05:17.492Z,101389.81
2023-01-06T08:10:20.092Z,101378.47
2023-01-06T08:15:24.040Z,101392.72
2023-01-06T08:20:26.724Z,101400.19
2023-01-06T08:25:29.344Z,101381.44
2023-01-06T08:30:39.715Z,101397.53
2023-01-06T08:35:43.980Z,101404.06
2023-01-06T08:40:46.526Z,101407.94
2023-01-06T08:45:50.574Z,101421.69
2023-01-06T08:50:53.359Z,101435.53
2023-01-06T08:55:55.926Z,101425.13
2023-01-06T09:01:00.192Z,101454.41
2023-01-06T09:06:02.759Z,101449.94
2023-01-06T09:11:06.222Z,101459.84
2023-01-06T09:16:12.229Z,101448.91
2023-01-06T09:21:15.229Z,101440.03
2023-01-06T09:26:19.153Z,101470.88
2023-01-06T09:31:23.529Z,101496.59
2023-01-06T09:36:26.120Z,101500.13
2023-01-06T09:41:43.839Z,101507.81
2023-01-06T09:46:51.244Z,101508.59
2023-01-06T09:51:56.359Z,101499.09
2023-01-06T09:57:04.498Z,101502.34
2023-01-06T10:02:15.749Z,101515.84
2023-01-06T10:07:28.339Z,101510.47
2023-01-06T10:12:47.285Z,101517.53
2023-01-06T10:18:02.055Z,101514.59
2023-01-06T10:23:19.940Z,101525.22
2023-01-06T10:28:30.113Z,101519.69
2023-01-06T10:33:38.383Z,101515.13
2023-01-06T10:38:44.459Z,101504.19
2023-01-06T10:43:47.269Z,101502.84
2023-01-06T10:48:52.039Z,101500.16
2023-01-06T10:53:55.589Z,101516.56
2023-01-06T10:59:03.853Z,101515.03
2023-01-06T11:04:09.929Z,101498.41
2023-01-06T11:09:27.654Z,101504.69
2023-01-06T11:14:33.284Z,101507.22
2023-01-06T11:19:40.162Z,101512.53
2023-01-06T11:24:51.861Z,101515.31
2023-01-06T11:29:54.430Z,101509.22
2023-01-06T11:35:01.120Z,101514.25
2023-01-06T11:40:11.264Z,101515.94
2023-01-06T11:45:30.792Z,101514.44
2023-01-06T11:50:34.918Z,101509.13
2023-01-06T11:55:37.504Z,101493.56
2023-01-06T12:00:46.446Z,101495.22
2023-01-06T12:05:55.936Z,101490.13
2023-01-06T12:11:04.368Z,101502.31
2023-01-06T12:16:14.322Z,101516.47
2023-01-06T12:29:44.003Z,101507.53
2023-01-06T12:36:17.535Z,101506.69
2023-01-06T12:41:28.391Z,101496.97
2023-01-06T12:46:38.650Z,101505.50
2023-01-06T12:51:45.315Z,101492.53
2023-01-06T12:57:04.294Z,101494.75
2023-01-06T13:02:19.598Z,101511.09
2023-01-06T13:07:35.558Z,101512.25
2023-01-06T13:12:50.429Z,101499.47
2023-01-06T13:18:04.729Z,101490.25
2023-01-06T13:23:26.403Z,101485.75
2023-01-06T13:28:39.185Z,101488.16
2023-01-06T13:34:03.830Z,101502.66
2023-01-06T13:39:10.976Z,101449.06
2023-01-06T13:44:17.777Z,101492.63
2023-01-06T13:49:21.015Z,101490.31
2023-01-06T13:55:03.980Z,101498.16
2023-01-06T14:00:25.038Z,101495.88
2023-01-06T14:05:53.792Z,101486.75
2023-01-06T14:11:02.948Z,101486.25
2023-01-06T14:16:11.068Z,101484.16
2023-01-06T14:21:26.051Z,101499.19
2023-01-06T14:26:49.491Z,101495.50
2023-01-06T14:31:53.462Z,101497.75
2023-01-06T14:36:57.179Z,101492.25
2023-01-06T14:42:04.852Z,101491.78
2023-01-06T14:47:14.743Z,101491.69
2023-01-06T14:52:21.030Z,101499.25
2023-01-06T14:57:26.178Z,101489.13
2023-01-06T15:02:30.426Z,101498.22
2023-01-06T15:07:33.054Z,101498.16
2023-01-06T15:12:35.590Z,101493.59
2023-01-06T15:17:40.893Z,101487.25
2023-01-06T15:22:49.266Z,101498.63
2023-01-06T15:27:57.642Z,101493.66
2023-01-06T15:33:04.416Z,101497.00
2023-01-06T15:38:30.240Z,101491.69
2023-01-06T15:43:45.078Z,101498.69
2023-01-06T15:48:50.602Z,101498.63
2023-01-06T15:53:57.554Z,101489.78
2023-01-06T15:59:02.599Z,101462.28
2023-01-06T16:04:06.937Z,101467.97
2023-01-06T16:09:30.953Z,101485.44
2023-01-06T16:14:36.788Z,101483.25
2023-01-06T16:19:47.770Z,101487.06
2023-01-06T16:24:51.458Z,101494.84
2023-01-06T16:30:20.879Z,101500.59
2023-01-06T16:35:26.654Z,101498.06
2023-01-06T16:40:30.225Z,101507.53
2023-01-06T16:45:36.160Z,101510.59
2023-01-06T16:50:44.387Z,101513.94
2023-01-06T16:55:52.264Z,101507.19
2023-01-06T17:00:58.030Z,101508.44
2023-01-06T17:06:01.923Z,101498.47
2023-01-06T17:11:14.270Z,101505.31
2023-01-06T17:16:21.181Z,101520.72
2023-01-06T17:21:29.764Z,101511.06
2023-01-06T17:26:32.493Z,101514.13
2023-01-06T17:31:39.541Z,101512.63
2023-01-06T17:36:45.155Z,101502.38
2023-01-06T17:41:47.717Z,101511.94
2023-01-06T17:46:50.836Z,101507.41
2023-01-06T17:51:54.881Z,101509.03
2023-01-06T17:56:57.412Z,101510.25
2023-01-06T18:02:01.489Z,101504.88
2023-01-06T18:07:12.954Z,101484.88
2023-01-06T18:12:17.759Z,101507.41
2023-01-06T18:17:24.492Z,101508.00
2023-01-06T18:22:33.671Z,101507.13
2023-01-06T18:27:36.813Z,101510.25
2023-01-06T18:32:39.568Z,101497.06
2023-01-06T18:37:44.501Z,101489.78
2023-01-06T18:42:49.381Z,101490.34
2023-01-06T18:47:54.455Z,101491.88
2023-01-06T18:53:00.479Z,101498.88
2023-01-06T18:58:08.933Z,101506.94
2023-01-06T19:03:34.099Z,101495.47
2023-01-06T19:08:39.724Z,101501.19
2023-01-06T19:13:43.162Z,101425.59
2023-01-06T19:18:45.797Z,101490.72
2023-01-06T19:23:50.134Z,101485.97
2023-01-06T19:28:59.616Z,101408.88
2023-01-06T19:34:05.967Z,101488.00
2023-01-06T19:39:27.169Z,101497.38
2023-01-06T19:44:33.393Z,101502.50
2023-01-06T19:49:40.770Z,101503.50
2023-01-06T19:54:44.723Z,101489.19
2023-01-06T19:59:47.397Z,101481.03
2023-01-06T20:04:49.942Z,101479.25
2023-01-06T20:09:54.074Z,101424.25
2023-01-06T20:14:56.600Z,101463.41
2023-01-06T20:19:59.126Z,101470.53
2023-01-06T20:25:03.046Z,101478.66
2023-01-06T20:30:06.627Z,101472.13
2023-01-06T20:35:10.239Z,101479.06
2023-01-06T20:40:14.285Z,101480.06
2023-01-06T20:45:16.879Z,101474.91
2023-01-06T20:50:20.718Z,101459.09
2023-01-06T20:55:24.760Z,101440.50
2023-01-06T21:00:27.381Z,101487.41
2023-01-06T21:05:30.170Z,101480.38
2023-01-06T21:10:34.469Z,101482.94
2023-01-06T21:15:37.097Z,101485.22
2023-01-06T21:20:41.386Z,101477.25
2023-01-06T21:25:46.494Z,101467.00
2023-01-06T21:30:49.138Z,101469.38
2023-01-06T21:35:51.889Z,101464.84
2023-01-06T21:41:15.897Z,101470.72
2023-01-06T21:46:18.693Z,101462.78
2023-01-06T21:51:21.986Z,101463.16
2023-01-06T21:56:26.610Z,101464.75
2023-01-06T22:01:29.920Z,101459.56
2023-01-06T22:06:32.824Z,101460.59
2023-01-06T22:11:38.787Z,101459.09
2023-01-06T22:16:42.150Z,101465.03
2023-01-06T22:21:46.375Z,101461.66
2023-01-06T22:26:50.257Z,101451.50
2023-01-06T22:31:52.787Z,101457.06
2023-01-06T22:36:55.329Z,101462.03
2023-01-06T22:42:00.056Z,101452.34
2023-01-06T22:47:02.621Z,101465.72
2023-01-06T22:52:05.633Z,101474.13
2023-01-06T22:57:09.886Z,101453.09
2023-01-06T23:02:13.877Z,101473.22
2023-01-06T23:07:16.952Z,101475.09
2023-01-06T23:12:21.212Z,101480.22
2023-01-06T23:17:23.749Z,101470.72
2023-01-06T23:22:26.292Z,101464.19
2023-01-06T23:27:31.446Z,101463.06
2023-01-06T23:32:34.557Z,101458.34
2023-01-06T23:37:37.872Z,101449.97
2023-01-06T23:42:48.341Z,101456.03
2023-01-06T23:47:51.453Z,101445.53
2023-01-06T23:52:54.810Z,101452.91
2023-01-06T23:57:58.763Z,101445.72
